Time;durP1;ratioP1;P1;durP2;ratioP2;P2;SDS_P1;SDS_P2;PMS_P1;PMS_P2;Temp;Humidity;BMP_temperature;BMP_pressure;BME280_temperature;BME280_humidity;BME280_pressure;Samples;Min_cycle;Max_cycle;Signal;HPM_P1;HPM_P2
2023/12/16 00:01:48;;;;;;;44.93;25.17;;;4.50;99.90;;;;;;4954958;29;20197;-77
2023/12/16 00:04:16;;;;;;;37.40;23.40;;;4.50;99.90;;;;;;4954932;29;20208;-77
2023/12/16 00:06:43;;;;;;;38.63;24.57;;;4.40;99.90;;;;;;4954877;29;20201;-77
2023/12/16 00:09:10;;;;;;;43.50;24.40;;;4.40;99.90;;;;;;4954725;29;20581;-78
2023/12/16 00:11:36;;;;;;;42.63;24.27;;;4.40;99.90;;;;;;4955078;29;20204;-77
2023/12/16 00:14:03;;;;;;;44.63;25.67;;;4.40;99.90;;;;;;4954905;29;20204;-77
2023/12/16 00:16:30;;;;;;;39.93;24.27;;;4.40;99.90;;;;;;4954809;29;20232;-77
2023/12/16 00:18:56;;;;;;;41.33;23.27;;;4.40;99.90;;;;;;4954747;29;20204;-78
2023/12/16 00:21:25;;;;;;;40.07;25.53;;;4.40;99.90;;;;;;4954744;29;20683;-77
2023/12/16 00:23:51;;;;;;;40.87;25.00;;;4.40;99.90;;;;;;4954705;29;20205;-77
2023/12/16 00:26:18;;;;;;;39.17;25.07;;;4.40;99.90;;;;;;4954712;29;20573;-77
2023/12/16 00:28:45;;;;;;;40.27;24.50;;;4.40;99.90;;;;;;4954546;29;20200;-78
2023/12/16 00:31:12;;;;;;;38.90;24.50;;;4.40;99.90;;;;;;4958238;29;20294;-78
2023/12/16 00:33:38;;;;;;;42.97;25.33;;;4.50;99.90;;;;;;4958592;29;20668;-78
2023/12/16 00:36:05;;;;;;;43.03;25.20;;;4.50;99.90;;;;;;4958355;29;20231;-78
2023/12/16 00:38:33;;;;;;;42.53;24.50;;;4.50;99.90;;;;;;4958690;29;20213;-77
2023/12/16 00:41:00;;;;;;;41.80;24.70;;;4.50;99.90;;;;;;4958446;29;20205;-78
2023/12/16 00:43:26;;;;;;;39.10;24.03;;;4.50;99.90;;;;;;4958497;29;20204;-78
2023/12/16 00:45:53;;;;;;;44.27;25.73;;;4.40;99.90;;;;;;4958287;29;20613;-78
2023/12/16 00:48:20;;;;;;;45.13;27.17;;;4.40;99.90;;;;;;4958392;29;20206;-78
2023/12/16 00:50:46;;;;;;;44.63;25.73;;;4.50;99.90;;;;;;4958243;29;20200;-78
2023/12/16 00:53:13;;;;;;;42.43;24.53;;;4.40;99.90;;;;;;4958487;29;20272;-77
2023/12/16 00:55:41;;;;;;;42.47;24.07;;;4.40;99.90;;;;;;4958398;29;20260;-78
2023/12/16 00:58:08;;;;;;;44.63;26.20;;;4.50;99.90;;;;;;4958169;29;20729;-78
2023/12/16 01:00:35;;;;;;;43.30;25.63;;;4.50;99.90;;;;;;4958176;29;20212;-78
2023/12/16 01:03:02;;;;;;;43.13;25.77;;;4.50;99.90;;;;;;4958042;29;20208;-77
2023/12/16 01:05:28;;;;;;;43.70;26.07;;;4.50;99.90;;;;;;4958000;29;20244;-77
2023/12/16 01:07:55;;;;;;;45.73;27.13;;;4.40;99.90;;;;;;4958133;29;20264;-78
2023/12/16 01:10:23;;;;;;;47.17;27.40;;;4.50;99.90;;;;;;4958092;29;20263;-78
2023/12/16 01:12:51;;;;;;;42.93;25.37;;;4.40;99.90;;;;;;4957981;29;20354;-78
2023/12/16 01:15:17;;;;;;;46.90;26.07;;;4.40;99.90;;;;;;4957888;29;20201;-78
2023/12/16 01:17:44;;;;;;;44.03;26.23;;;4.40;99.90;;;;;;4957629;29;20280;-78
2023/12/16 01:20:11;;;;;;;46.93;25.63;;;4.40;99.90;;;;;;4957934;29;20283;-77
2023/12/16 01:22:38;;;;;;;42.07;24.63;;;4.30;99.90;;;;;;4957899;29;20260;-78
2023/12/16 01:25:06;;;;;;;43.10;24.80;;;4.30;99.90;;;;;;4957849;29;20263;-78
2023/12/16 01:27:32;;;;;;;42.13;24.97;;;4.30;99.90;;;;;;4957689;29;20215;-78
2023/12/16 01:30:00;;;;;;;42.73;26.83;;;4.30;99.90;;;;;;4957697;29;20199;-77
2023/12/16 01:32:27;;;;;;;46.80;26.27;;;4.30;99.90;;;;;;4957623;29;20211;-77
2023/12/16 01:34:54;;;;;;;44.67;26.27;;;4.30;99.90;;;;;;4957876;29;20259;-78
2023/12/16 01:37:20;;;;;;;45.03;26.50;;;4.30;99.90;;;;;;4957654;29;20239;-78
2023/12/16 01:39:47;;;;;;;43.43;25.83;;;4.30;99.90;;;;;;4957688;29;20253;-78
2023/12/16 01:42:14;;;;;;;46.13;27.20;;;4.30;99.90;;;;;;4964387;28;20626;-78
2023/12/16 01:44:40;;;;;;;42.37;25.47;;;4.30;99.90;;;;;;4957512;29;20197;-78
2023/12/16 01:47:08;;;;;;;44.50;27.07;;;4.30;99.90;;;;;;4957182;29;20205;-78
2023/12/16 01:49:37;;;;;;;46.77;25.27;;;4.30;99.90;;;;;;4957432;29;20201;-78
2023/12/16 01:52:04;;;;;;;45.33;26.67;;;4.40;99.90;;;;;;4957372;29;20200;-79
2023/12/16 01:54:31;;;;;;;44.90;26.63;;;4.40;99.90;;;;;;4957099;29;20252;-78
2023/12/16 01:56:59;;;;;;;45.53;26.50;;;4.40;99.90;;;;;;4956946;29;20616;-78
2023/12/16 01:59:27;;;;;;;42.90;26.27;;;4.40;99.90;;;;;;4957094;29;20238;-78
2023/12/16 02:01:55;;;;;;;48.87;26.93;;;4.40;99.90;;;;;;4957400;29;20207;-79
2023/12/16 02:04:23;;;;;;;41.47;26.23;;;4.30;99.90;;;;;;4956891;29;20555;-78
2023/12/16 02:06:50;;;;;;;47.77;27.27;;;4.30;99.90;;;;;;4956971;29;20205;-78
2023/12/16 02:09:18;;;;;;;41.73;25.27;;;4.40;99.90;;;;;;4956890;29;20208;-77
2023/12/16 02:11:45;;;;;;;44.67;25.80;;;4.30;99.90;;;;;;4956968;29;20259;-77
2023/12/16 02:14:11;;;;;;;45.97;26.73;;;4.30;99.90;;;;;;4956811;29;20680;-77
2023/12/16 02:16:38;;;;;;;41.77;25.47;;;4.30;99.90;;;;;;4957032;29;20283;-77
2023/12/16 02:19:11;;;;;;;40.27;24.93;;;4.30;99.90;;;;;;4957034;29;20269;-78
2023/12/16 02:21:40;;;;;;;45.80;26.30;;;4.30;99.90;;;;;;4956649;29;20209;-77
2023/12/16 02:24:08;;;;;;;45.80;25.20;;;4.30;99.90;;;;;;4956637;29;20307;-77
2023/12/16 02:26:35;;;;;;;47.70;27.80;;;4.30;99.90;;;;;;4956530;29;20263;-77
2023/12/16 02:29:01;;;;;;;43.53;25.33;;;4.30;99.90;;;;;;4956527;29;20723;-76
2023/12/16 02:31:29;;;;;;;51.33;28.00;;;4.30;99.90;;;;;;4956624;29;20252;-77
2023/12/16 02:33:55;;;;;;;45.03;26.53;;;4.30;99.90;;;;;;4956433;29;20199;-78
2023/12/16 02:36:22;;;;;;;44.93;26.57;;;4.30;99.90;;;;;;4956541;29;20200;-77
2023/12/16 02:38:49;;;;;;;47.53;27.83;;;4.30;99.90;;;;;;4956375;29;20590;-77
2023/12/16 02:41:17;;;;;;;43.20;26.80;;;4.30;99.90;;;;;;4956001;29;20229;-77
2023/12/16 02:43:43;;;;;;;45.97;26.73;;;4.30;99.90;;;;;;4956488;29;20280;-77
2023/12/16 02:46:10;;;;;;;45.03;26.33;;;4.30;99.90;;;;;;4956207;29;20657;-77
2023/12/16 02:48:38;;;;;;;47.47;26.43;;;4.30;99.90;;;;;;4956221;29;20626;-77
2023/12/16 02:51:04;;;;;;;45.50;25.93;;;4.30;99.90;;;;;;4956233;29;20258;-77
2023/12/16 02:53:31;;;;;;;45.70;26.57;;;4.30;99.90;;;;;;4955789;28;20212;-77
2023/12/16 02:55:58;;;;;;;44.47;26.03;;;4.30;99.90;;;;;;4955940;29;20208;-77
2023/12/16 02:58:26;;;;;;;49.07;27.43;;;4.30;99.90;;;;;;4955841;29;20692;-77
2023/12/16 03:00:53;;;;;;;46.97;27.43;;;4.30;99.90;;;;;;4955981;29;20209;-76
2023/12/16 03:03:19;;;;;;;51.60;28.83;;;4.30;99.90;;;;;;4955844;29;20279;-77
2023/12/16 03:05:46;;;;;;;48.60;28.33;;;4.30;99.90;;;;;;4955830;29;20208;-77
2023/12/16 03:08:13;;;;;;;51.43;28.10;;;4.30;99.90;;;;;;4955776;29;20213;-76
2023/12/16 03:10:39;;;;;;;51.13;27.73;;;4.30;99.90;;;;;;4955949;29;20534;-76
2023/12/16 03:13:06;;;;;;;52.40;28.33;;;4.30;99.90;;;;;;4955934;29;20204;-76
2023/12/16 03:15:34;;;;;;;50.40;28.63;;;4.30;99.90;;;;;;4955757;29;20610;-76
2023/12/16 03:18:01;;;;;;;51.37;27.47;;;4.30;99.90;;;;;;4955578;29;20283;-76
2023/12/16 03:20:27;;;;;;;45.43;27.27;;;4.30;99.90;;;;;;4955669;29;20268;-76
2023/12/16 03:22:54;;;;;;;49.27;27.13;;;4.30;99.90;;;;;;4955401;29;20762;-76
2023/12/16 03:25:21;;;;;;;55.70;30.70;;;4.30;99.90;;;;;;4955611;29;20205;-77
2023/12/16 03:27:47;;;;;;;54.77;29.40;;;4.30;99.90;;;;;;4955668;29;20207;-76
2023/12/16 03:30:14;;;;;;;54.80;28.60;;;4.40;99.90;;;;;;4955634;29;20208;-77
2023/12/16 03:32:42;;;;;;;56.60;29.83;;;4.40;99.90;;;;;;4955451;29;20201;-77
2023/12/16 03:35:10;;;;;;;51.93;28.60;;;4.40;99.90;;;;;;4955354;29;20208;-76
2023/12/16 03:37:36;;;;;;;62.50;29.37;;;4.50;99.90;;;;;;4955469;29;20228;-77
2023/12/16 03:40:04;;;;;;;61.07;28.73;;;4.50;99.90;;;;;;4955481;29;20203;-76
2023/12/16 03:42:30;;;;;;;53.83;28.33;;;4.50;99.90;;;;;;4955035;29;20237;-77
2023/12/16 03:44:58;;;;;;;55.07;28.40;;;4.50;99.90;;;;;;4955309;29;20210;-77
2023/12/16 03:47:25;;;;;;;53.43;28.20;;;4.40;99.90;;;;;;4955190;29;20300;-77
2023/12/16 03:49:53;;;;;;;47.73;27.83;;;4.40;99.90;;;;;;4955058;29;20211;-76
2023/12/16 03:52:19;;;;;;;50.80;28.40;;;4.40;99.90;;;;;;4955239;29;20205;-76
2023/12/16 03:54:46;;;;;;;54.53;28.17;;;4.40;99.90;;;;;;4955169;29;20656;-76
2023/12/16 03:57:13;;;;;;;49.17;27.60;;;4.40;99.90;;;;;;4955057;29;20257;-76
2023/12/16 03:59:40;;;;;;;51.17;27.40;;;4.40;99.90;;;;;;4955027;29;20237;-76
2023/12/16 04:02:06;;;;;;;57.90;28.13;;;4.40;99.90;;;;;;4955007;29;20201;-76
2023/12/16 04:04:33;;;;;;;54.63;27.60;;;4.40;99.90;;;;;;4954368;28;20209;-76
2023/12/16 04:07:02;;;;;;;52.47;28.10;;;4.50;99.90;;;;;;4955175;29;20220;-76
2023/12/16 04:09:28;;;;;;;58.70;28.10;;;4.50;99.90;;;;;;4954860;29;20201;-76
2023/12/16 04:11:55;;;;;;;51.37;27.30;;;4.50;99.90;;;;;;4954830;29;20211;-76
2023/12/16 04:14:22;;;;;;;54.93;28.63;;;4.50;99.90;;;;;;4954734;29;20742;-76
2023/12/16 04:16:49;;;;;;;50.43;27.93;;;4.50;99.90;;;;;;4954608;29;20562;-76
2023/12/16 04:19:15;;;;;;;48.97;27.13;;;4.50;99.90;;;;;;4954599;29;20225;-77
2023/12/16 04:21:42;;;;;;;53.53;28.03;;;4.50;99.90;;;;;;4954701;29;20665;-77
2023/12/16 04:24:10;;;;;;;52.33;27.80;;;4.50;99.90;;;;;;4954849;29;20257;-76
2023/12/16 04:26:37;;;;;;;49.37;26.50;;;4.50;99.90;;;;;;4954750;29;20205;-76
2023/12/16 04:29:04;;;;;;;50.93;27.40;;;4.40;99.90;;;;;;4954651;29;20753;-76
2023/12/16 04:31:30;;;;;;;53.40;27.50;;;4.40;99.90;;;;;;4954515;29;20264;-77
2023/12/16 04:33:57;;;;;;;49.40;27.13;;;4.40;99.90;;;;;;4954804;29;20632;-76
2023/12/16 04:36:24;;;;;;;54.67;26.97;;;4.50;99.90;;;;;;4954738;29;20220;-76
2023/12/16 04:38:51;;;;;;;48.10;26.67;;;4.40;99.90;;;;;;4954647;29;20242;-77
2023/12/16 04:41:19;;;;;;;51.43;26.73;;;4.40;99.90;;;;;;4954412;28;20233;-77
2023/12/16 04:43:45;;;;;;;53.00;26.73;;;4.30;99.90;;;;;;4954644;29;20215;-76
2023/12/16 04:46:12;;;;;;;47.30;26.07;;;4.30;99.90;;;;;;4954444;29;20204;-76
2023/12/16 04:48:39;;;;;;;50.63;27.07;;;4.30;99.90;;;;;;4954651;29;20208;-76
2023/12/16 04:51:06;;;;;;;48.93;26.53;;;4.30;99.90;;;;;;4954521;29;20205;-77
2023/12/16 04:53:34;;;;;;;51.37;26.90;;;4.30;99.90;;;;;;4954598;29;20202;-76
2023/12/16 04:56:01;;;;;;;51.43;26.77;;;4.30;99.90;;;;;;4954507;29;20201;-76
2023/12/16 04:58:30;;;;;;;57.87;28.53;;;4.30;99.90;;;;;;4954306;29;20231;-76
2023/12/16 05:00:56;;;;;;;54.60;29.10;;;4.30;99.90;;;;;;4954653;29;20208;-76
2023/12/16 05:03:23;;;;;;;48.53;26.27;;;4.30;99.90;;;;;;4954539;29;20208;-76
2023/12/16 05:05:50;;;;;;;54.27;26.23;;;4.30;99.90;;;;;;4954267;29;20668;-76
2023/12/16 05:08:19;;;;;;;51.67;25.93;;;4.30;99.90;;;;;;4954423;29;20770;-76
2023/12/16 05:10:47;;;;;;;51.17;26.93;;;4.30;99.90;;;;;;4954407;29;20201;-77
2023/12/16 05:13:14;;;;;;;49.93;26.47;;;4.30;99.90;;;;;;4954375;29;20287;-77
2023/12/16 05:15:42;;;;;;;47.57;27.10;;;4.30;99.90;;;;;;4963171;28;20236;-77
2023/12/16 05:18:09;;;;;;;48.53;25.73;;;4.30;99.90;;;;;;4957712;29;20596;-77
2023/12/16 05:20:36;;;;;;;49.20;25.10;;;4.30;99.90;;;;;;4957966;29;20200;-77
2023/12/16 05:23:03;;;;;;;50.10;26.90;;;4.30;99.90;;;;;;4957793;29;20204;-77
2023/12/16 05:25:31;;;;;;;48.30;25.57;;;4.30;99.90;;;;;;4957709;29;20201;-77
2023/12/16 05:27:58;;;;;;;51.43;26.07;;;4.30;99.90;;;;;;4957579;29;20217;-77
2023/12/16 05:30:25;;;;;;;50.37;26.67;;;4.30;99.90;;;;;;4957713;29;20613;-76
2023/12/16 05:32:52;;;;;;;47.23;25.77;;;4.30;99.90;;;;;;4957726;29;20209;-77
2023/12/16 05:35:19;;;;;;;47.10;24.87;;;4.30;99.90;;;;;;4957640;29;20205;-76
2023/12/16 05:37:46;;;;;;;48.27;26.80;;;4.30;99.90;;;;;;4957476;29;20225;-76
2023/12/16 05:40:13;;;;;;;48.07;25.40;;;4.30;99.90;;;;;;4957459;29;20212;-76
2023/12/16 05:42:40;;;;;;;47.33;25.53;;;4.30;99.90;;;;;;4957258;29;20697;-76
2023/12/16 05:45:07;;;;;;;51.07;26.23;;;4.30;99.90;;;;;;4957550;29;20292;-76
2023/12/16 05:47:34;;;;;;;48.47;25.80;;;4.30;99.90;;;;;;4957220;29;20676;-76
2023/12/16 05:50:03;;;;;;;48.30;26.10;;;4.40;99.90;;;;;;4957326;29;20233;-76
2023/12/16 05:52:30;;;;;;;50.23;27.77;;;4.40;99.90;;;;;;4957267;29;20204;-77
2023/12/16 05:54:57;;;;;;;55.57;27.37;;;4.40;99.90;;;;;;4957024;29;20197;-76
2023/12/16 05:57:23;;;;;;;52.07;27.17;;;4.40;99.90;;;;;;4957225;29;20201;-77
2023/12/16 05:59:50;;;;;;;54.17;26.87;;;4.40;99.90;;;;;;4957164;29;20236;-76
2023/12/16 06:02:17;;;;;;;49.23;26.13;;;4.30;99.90;;;;;;4957139;29;20205;-76
2023/12/16 06:04:43;;;;;;;52.10;26.80;;;4.30;99.90;;;;;;4957269;29;20201;-75
2023/12/16 06:07:11;;;;;;;51.27;28.43;;;4.30;99.90;;;;;;4956962;29;20680;-74
2023/12/16 06:09:38;;;;;;;58.40;30.83;;;4.30;99.90;;;;;;4957146;29;20220;-75
2023/12/16 06:12:05;;;;;;;50.80;26.60;;;4.30;99.90;;;;;;4957319;29;20199;-75
2023/12/16 06:14:32;;;;;;;52.90;28.27;;;4.30;99.90;;;;;;4957231;29;20211;-77
2023/12/16 06:16:58;;;;;;;52.60;27.37;;;4.30;99.90;;;;;;4957062;29;20220;-76
2023/12/16 06:19:26;;;;;;;51.13;25.67;;;4.30;99.90;;;;;;4956716;29;20299;-76
2023/12/16 06:21:52;;;;;;;51.80;26.30;;;4.30;99.90;;;;;;4956635;29;20203;-76
2023/12/16 06:24:20;;;;;;;45.57;25.43;;;4.30;99.90;;;;;;4956703;29;20209;-76
2023/12/16 06:26:47;;;;;;;47.17;24.77;;;4.30;99.90;;;;;;4956405;28;20256;-76
2023/12/16 06:29:14;;;;;;;47.97;25.50;;;4.30;99.90;;;;;;4956401;29;20201;-76
2023/12/16 06:31:40;;;;;;;49.53;27.90;;;4.30;99.90;;;;;;4956703;29;20208;-77
2023/12/16 06:34:07;;;;;;;53.03;26.97;;;4.40;99.90;;;;;;4956539;29;20234;-76
2023/12/16 06:36:33;;;;;;;51.20;26.90;;;4.30;99.90;;;;;;4948689;29;20271;-77
2023/12/16 06:39:00;;;;;;;50.07;25.97;;;4.30;99.90;;;;;;4956610;29;20287;-77
2023/12/16 06:41:30;;;;;;;49.87;25.83;;;4.20;99.90;;;;;;4956386;29;20279;-77
2023/12/16 06:43:56;;;;;;;50.37;26.27;;;4.20;99.90;;;;;;4956220;29;20675;-76
2023/12/16 06:46:23;;;;;;;50.47;26.13;;;4.30;99.90;;;;;;4956376;29;20240;-76
2023/12/16 06:48:50;;;;;;;44.90;25.27;;;4.30;99.90;;;;;;4956254;29;20209;-77
2023/12/16 06:51:16;;;;;;;51.10;26.77;;;4.30;99.90;;;;;;4956085;29;20263;-76
2023/12/16 06:53:43;;;;;;;48.67;26.10;;;4.30;99.90;;;;;;4956389;29;20263;-76
2023/12/16 06:56:10;;;;;;;48.67;26.33;;;4.30;99.90;;;;;;4956335;29;20261;-76
2023/12/16 06:58:40;;;;;;;45.33;24.73;;;4.20;99.90;;;;;;4956226;29;20276;-77
2023/12/16 07:01:09;;;;;;;48.77;25.73;;;4.30;99.90;;;;;;4956022;29;20205;-77
2023/12/16 07:03:36;;;;;;;47.43;25.83;;;4.30;99.90;;;;;;4948771;29;20204;-77
2023/12/16 07:06:03;;;;;;;48.33;24.40;;;4.30;99.90;;;;;;4956231;29;20204;-78
2023/12/16 07:08:29;;;;;;;47.40;25.53;;;4.30;99.90;;;;;;4956072;29;20303;-77
2023/12/16 07:10:56;;;;;;;49.00;26.23;;;4.30;99.90;;;;;;4955499;29;20581;-77
2023/12/16 07:13:23;;;;;;;52.57;26.13;;;4.30;99.90;;;;;;4955769;29;20201;-76
2023/12/16 07:15:51;;;;;;;50.73;27.10;;;4.30;99.90;;;;;;4955436;29;20719;-77
2023/12/16 07:18:17;;;;;;;45.93;25.13;;;4.30;99.90;;;;;;4955207;29;20220;-76
2023/12/16 07:20:44;;;;;;;46.50;26.37;;;4.30;99.90;;;;;;4955808;29;20204;-77
2023/12/16 07:23:11;;;;;;;44.07;24.57;;;4.30;99.90;;;;;;4955597;29;20645;-76
2023/12/16 07:25:37;;;;;;;42.93;25.60;;;4.30;99.90;;;;;;4955538;29;20255;-77
2023/12/16 07:28:04;;;;;;;44.73;25.33;;;4.30;99.90;;;;;;4955558;29;20209;-78
2023/12/16 07:30:32;;;;;;;45.23;24.50;;;4.40;99.90;;;;;;4955444;29;20259;-77
2023/12/16 07:33:00;;;;;;;47.40;24.40;;;4.40;99.90;;;;;;4955569;29;20200;-78
2023/12/16 07:35:27;;;;;;;44.83;24.50;;;4.40;99.90;;;;;;4955486;29;20203;-78
2023/12/16 07:37:53;;;;;;;48.87;26.00;;;4.40;99.90;;;;;;4955447;29;20534;-78
2023/12/16 07:40:20;;;;;;;47.93;26.17;;;4.40;99.90;;;;;;4954402;28;20267;-78
2023/12/16 07:42:47;;;;;;;42.17;24.13;;;4.40;99.90;;;;;;4954949;29;20240;-79
2023/12/16 07:45:13;;;;;;;43.57;24.90;;;4.50;99.90;;;;;;4955172;29;20227;-77
2023/12/16 07:47:40;;;;;;;42.47;24.30;;;4.50;99.90;;;;;;4955296;29;20296;-77
2023/12/16 07:50:10;;;;;;;45.10;26.27;;;4.50;99.90;;;;;;4955242;29;20216;-77
2023/12/16 07:52:37;;;;;;;46.67;26.03;;;4.60;99.90;;;;;;4955215;29;20204;-77
2023/12/16 07:55:04;;;;;;;41.57;25.70;;;4.60;99.90;;;;;;4955041;29;20197;-78
2023/12/16 07:57:31;;;;;;;42.40;25.07;;;4.70;99.90;;;;;;4954938;29;20352;-77
2023/12/16 07:59:58;;;;;;;40.20;23.90;;;4.60;99.90;;;;;;4954839;29;20319;-77
2023/12/16 08:02:25;;;;;;;38.33;23.73;;;4.60;99.90;;;;;;4955077;29;20259;-77
2023/12/16 08:04:53;;;;;;;36.97;23.93;;;4.70;99.90;;;;;;4954955;29;20205;-77
2023/12/16 08:07:21;;;;;;;35.73;22.30;;;4.60;99.90;;;;;;4954929;29;20205;-77
2023/12/16 08:09:47;;;;;;;38.07;24.30;;;4.70;99.90;;;;;;4954645;29;20719;-78
2023/12/16 08:12:14;;;;;;;38.27;24.33;;;4.70;99.90;;;;;;4954884;29;20213;-78
2023/12/16 08:14:41;;;;;;;41.63;25.00;;;4.70;99.90;;;;;;4954886;29;20540;-77
2023/12/16 08:17:07;;;;;;;40.73;24.80;;;4.70;99.90;;;;;;4954987;29;20213;-77
2023/12/16 08:19:34;;;;;;;40.37;24.17;;;4.70;99.90;;;;;;4954799;29;20323;-77
2023/12/16 08:22:01;;;;;;;37.30;22.57;;;4.80;99.90;;;;;;4954816;29;20208;-77
2023/12/16 08:24:31;;;;;;;34.27;22.70;;;4.80;99.90;;;;;;4954868;29;20205;-77
2023/12/16 08:26:58;;;;;;;33.60;22.77;;;4.80;99.90;;;;;;4954638;29;20308;-77
2023/12/16 08:29:24;;;;;;;37.97;22.67;;;4.90;99.90;;;;;;4954946;29;20200;-77
2023/12/16 08:31:51;;;;;;;34.27;22.23;;;4.90;99.90;;;;;;4954518;29;20205;-77
2023/12/16 08:34:17;;;;;;;35.90;21.67;;;4.90;99.90;;;;;;4954723;29;20207;-78
2023/12/16 08:36:44;;;;;;;33.77;22.87;;;5.00;99.90;;;;;;4954684;29;20201;-78
2023/12/16 08:39:11;;;;;;;30.17;21.43;;;5.00;99.90;;;;;;4954544;29;20629;-77
2023/12/16 08:41:40;;;;;;;31.00;21.17;;;5.00;99.90;;;;;;4954324;28;20237;-77
2023/12/16 08:44:06;;;;;;;33.27;21.47;;;5.10;99.90;;;;;;4954834;29;20291;-77
2023/12/16 08:46:40;;;;;;;35.07;22.33;;;5.10;99.90;;;;;;4954747;29;20204;-79
2023/12/16 08:49:07;;;;;;;32.27;23.00;;;5.10;99.90;;;;;;4962262;29;20272;-77
2023/12/16 08:51:33;;;;;;;32.00;23.20;;;5.20;99.90;;;;;;4956903;28;20201;-77
2023/12/16 08:54:01;;;;;;;31.33;20.60;;;5.30;99.90;;;;;;4958185;29;20205;-76
2023/12/16 08:56:27;;;;;;;32.00;21.07;;;5.30;99.90;;;;;;4958045;29;20297;-78
2023/12/16 08:58:55;;;;;;;31.60;22.33;;;5.30;99.90;;;;;;4958333;29;20354;-78
2023/12/16 09:01:22;;;;;;;29.17;20.33;;;5.40;99.90;;;;;;4958314;29;20204;-77
2023/12/16 09:03:48;;;;;;;28.17;20.30;;;5.50;99.90;;;;;;4958266;29;20212;-78
2023/12/16 09:06:16;;;;;;;27.20;19.37;;;5.50;99.90;;;;;;4958354;29;20609;-79
2023/12/16 09:08:42;;;;;;;30.10;20.07;;;5.40;99.90;;;;;;4958024;29;20201;-78
2023/12/16 09:11:10;;;;;;;29.20;20.73;;;5.50;99.90;;;;;;4958433;29;20213;-78
2023/12/16 09:13:37;;;;;;;27.70;20.57;;;5.50;99.90;;;;;;4957911;29;20713;-79
2023/12/16 09:16:05;;;;;;;28.70;19.93;;;5.60;99.90;;;;;;4957991;29;20597;-77
2023/12/16 09:18:32;;;;;;;28.50;20.43;;;5.60;99.90;;;;;;4957776;29;20665;-78
2023/12/16 09:20:59;;;;;;;26.87;19.83;;;5.70;99.90;;;;;;4957673;29;20676;-78
2023/12/16 09:23:26;;;;;;;31.47;20.67;;;5.70;99.90;;;;;;4957939;29;20854;-77
2023/12/16 09:25:53;;;;;;;26.90;19.70;;;5.80;99.90;;;;;;4957849;29;20202;-78
2023/12/16 09:28:20;;;;;;;25.17;19.17;;;5.90;99.90;;;;;;4957812;29;20338;-77
2023/12/16 09:30:46;;;;;;;24.87;18.47;;;6.00;99.90;;;;;;4957714;29;20209;-78
2023/12/16 09:33:14;;;;;;;25.47;18.13;;;6.30;99.90;;;;;;4957435;29;20599;-78
2023/12/16 09:35:41;;;;;;;27.13;18.17;;;6.40;99.90;;;;;;4957414;29;20211;-78
2023/12/16 09:38:08;;;;;;;24.57;18.67;;;6.40;99.90;;;;;;4957307;29;20573;-78
2023/12/16 09:40:34;;;;;;;20.93;16.17;;;6.60;99.90;;;;;;4957414;29;20232;-77
2023/12/16 09:43:12;;;;;;;24.30;16.93;;;6.60;99.90;;;;;;4957176;29;20240;-78
2023/12/16 09:45:38;;;;;;;34.57;24.53;;;6.40;99.90;;;;;;4957395;29;20276;-78
2023/12/16 09:48:05;;;;;;;81.57;42.87;;;6.40;99.90;;;;;;4957161;29;20257;-78
2023/12/16 09:50:36;;;;;;;28.90;19.83;;;6.50;99.90;;;;;;4949057;29;20209;-79
2023/12/16 09:53:03;;;;;;;21.73;15.63;;;6.80;99.90;;;;;;4957337;29;20208;-77
2023/12/16 09:55:30;;;;;;;22.07;15.30;;;6.70;99.90;;;;;;4957296;29;20205;-77
2023/12/16 09:57:59;;;;;;;22.40;14.97;;;6.60;99.90;;;;;;4957352;29;20202;-78
2023/12/16 10:00:28;;;;;;;19.40;15.73;;;6.50;99.90;;;;;;4956967;29;20239;-77
2023/12/16 10:02:56;;;;;;;21.77;15.80;;;6.40;99.90;;;;;;4956025;28;20292;-77
2023/12/16 10:05:26;;;;;;;22.40;15.83;;;6.50;99.90;;;;;;4957170;29;20228;-78
2023/12/16 10:07:58;;;;;;;21.90;15.10;;;6.70;99.90;;;;;;4957302;29;20232;-79
2023/12/16 10:10:24;;;;;;;21.23;15.27;;;6.70;99.90;;;;;;4956961;29;20207;-77
2023/12/16 10:12:52;;;;;;;21.57;16.10;;;6.70;99.90;;;;;;4956828;29;20201;-77
2023/12/16 10:15:30;;;;;;;22.07;16.33;;;6.80;99.90;;;;;;4956631;29;20648;-77
2023/12/16 10:17:56;;;;;;;115.97;86.00;;;6.80;99.90;;;;;;4957004;29;20291;-79
2023/12/16 10:20:23;;;;;;;24.60;17.57;;;7.10;99.90;;;;;;4956752;29;20317;-77
2023/12/16 10:22:50;;;;;;;38.30;29.47;;;7.20;99.90;;;;;;4956605;29;20256;-77
2023/12/16 10:25:19;;;;;;;29.63;22.87;;;7.30;99.90;;;;;;4956617;29;20212;-77
2023/12/16 10:27:46;;;;;;;28.70;20.37;;;7.20;99.90;;;;;;4956562;29;20288;-77
2023/12/16 10:30:13;;;;;;;26.73;20.23;;;7.20;99.90;;;;;;4956573;29;20209;-77
2023/12/16 10:32:40;;;;;;;18.90;13.43;;;7.10;99.90;;;;;;4956774;29;20205;-77
2023/12/16 10:35:08;;;;;;;18.43;13.07;;;7.20;99.90;;;;;;4956563;29;20201;-77
2023/12/16 10:37:37;;;;;;;19.33;13.80;;;7.10;99.90;;;;;;4956445;29;20569;-77
2023/12/16 10:40:04;;;;;;;19.47;12.97;;;7.00;99.90;;;;;;4956300;29;20558;-77
2023/12/16 10:42:32;;;;;;;18.93;13.93;;;7.10;99.90;;;;;;4956034;28;20237;-77
2023/12/16 10:44:59;;;;;;;17.13;12.17;;;7.30;99.90;;;;;;4956502;29;20581;-77
2023/12/16 10:47:27;;;;;;;15.50;11.93;;;7.20;99.90;;;;;;4956335;29;20210;-77
2023/12/16 10:49:58;;;;;;;17.87;13.57;;;7.10;99.90;;;;;;4956316;29;20292;-77
2023/12/16 10:52:28;;;;;;;19.53;13.37;;;7.00;99.90;;;;;;4955949;29;20301;-77
2023/12/16 10:55:02;;;;;;;18.20;12.10;;;6.80;99.90;;;;;;4956045;29;20546;-77
2023/12/16 10:57:37;;;;;;;19.67;13.47;;;6.70;99.90;;;;;;4956202;29;20810;-77
2023/12/16 11:00:06;;;;;;;21.47;14.00;;;6.80;99.90;;;;;;4956047;29;20228;-77
2023/12/16 11:02:35;;;;;;;19.20;13.67;;;6.90;99.90;;;;;;4955696;29;20565;-77
2023/12/16 11:05:08;;;;;;;18.37;12.57;;;6.90;99.90;;;;;;4956003;29;20201;-77
2023/12/16 11:07:39;;;;;;;17.17;11.57;;;7.00;99.90;;;;;;4955807;29;20212;-78
2023/12/16 11:10:07;;;;;;;27.93;18.00;;;7.10;99.90;;;;;;4956028;29;20203;-77
2023/12/16 11:12:37;;;;;;;17.30;12.00;;;7.40;99.90;;;;;;4948212;29;20287;-76
2023/12/16 11:15:06;;;;;;;17.00;11.07;;;7.50;99.90;;;;;;4955755;28;20268;-77
2023/12/16 11:17:41;;;;;;;18.13;10.97;;;7.60;99.90;;;;;;4955573;29;20201;-77
2023/12/16 11:20:14;;;;;;;13.97;10.97;;;8.00;99.90;;;;;;4955799;29;20229;-77
2023/12/16 11:22:46;;;;;;;18.43;11.50;;;8.50;99.90;;;;;;4955752;29;20204;-77
2023/12/16 11:25:17;;;;;;;14.83;11.53;;;8.10;99.90;;;;;;4955609;29;20232;-78
2023/12/16 11:27:47;;;;;;;14.97;11.30;;;8.30;99.90;;;;;;4955921;29;20632;-78
2023/12/16 11:30:14;;;;;;;16.57;12.10;;;7.80;99.90;;;;;;4955479;29;20209;-78
2023/12/16 11:32:42;;;;;;;13.13;11.03;;;7.80;99.90;;;;;;4955740;29;20201;-78
2023/12/16 11:35:09;;;;;;;17.53;11.73;;;8.10;99.90;;;;;;4955675;29;20197;-78
2023/12/16 11:37:43;;;;;;;11.13;8.23;;;8.70;99.90;;;;;;4955542;29;20201;-79
2023/12/16 11:40:40;;;;;;;38.83;25.40;;;8.40;99.90;;;;;;4955278;29;20320;-78
2023/12/16 11:43:08;;;;;;;12.27;8.60;;;8.20;99.90;;;;;;4955173;29;20312;-78
2023/12/16 11:45:39;;;;;;;10.63;8.53;;;8.10;99.90;;;;;;4955440;29;20260;-77
2023/12/16 11:48:06;;;;;;;10.97;8.33;;;7.60;99.90;;;;;;4955284;29;20239;-78
2023/12/16 11:50:34;;;;;;;13.30;8.50;;;7.50;99.90;;;;;;4955081;29;20201;-77
2023/12/16 11:53:01;;;;;;;10.13;6.97;;;7.30;99.90;;;;;;4955100;29;20205;-78
2023/12/16 11:55:27;;;;;;;11.40;7.40;;;7.20;99.90;;;;;;4955066;29;20677;-78
2023/12/16 11:57:54;;;;;;;9.93;7.67;;;7.10;99.90;;;;;;4955023;29;20633;-79
2023/12/16 12:00:22;;;;;;;13.33;8.40;;;7.10;99.90;;;;;;4954884;29;20224;-78
2023/12/16 12:02:50;;;;;;;12.13;7.30;;;7.10;99.90;;;;;;4955241;29;20291;-78
2023/12/16 12:05:18;;;;;;;9.80;6.07;;;7.00;99.90;;;;;;4955180;29;20291;-78
2023/12/16 12:07:45;;;;;;;11.10;7.03;;;7.10;99.90;;;;;;4954960;29;20201;-78
2023/12/16 12:10:12;;;;;;;11.20;7.20;;;6.90;99.90;;;;;;4955159;29;20215;-78
2023/12/16 12:12:39;;;;;;;11.90;7.80;;;6.90;99.90;;;;;;4955029;29;20257;-79
2023/12/16 12:15:07;;;;;;;13.00;8.27;;;6.90;99.90;;;;;;4955008;29;20259;-78
2023/12/16 12:17:36;;;;;;;11.43;8.53;;;6.90;99.90;;;;;;4947517;29;20260;-78
2023/12/16 12:20:02;;;;;;;12.10;7.70;;;6.70;99.90;;;;;;4954739;29;20287;-78
2023/12/16 12:22:31;;;;;;;11.03;7.37;;;6.70;99.90;;;;;;4962906;28;20212;-77
2023/12/16 12:24:58;;;;;;;12.67;7.90;;;6.70;99.90;;;;;;4954677;29;20198;-77
2023/12/16 12:27:25;;;;;;;17.73;8.20;;;6.80;99.90;;;;;;4954807;29;20204;-77
2023/12/16 12:29:53;;;;;;;12.00;7.77;;;6.90;99.90;;;;;;4954683;29;20203;-76
2023/12/16 12:32:20;;;;;;;11.63;7.90;;;6.90;99.90;;;;;;4954543;29;20739;-77
2023/12/16 12:35:00;;;;;;;14.23;8.50;;;6.80;99.90;;;;;;4954564;29;20201;-77
2023/12/16 12:37:27;;;;;;;14.23;8.23;;;6.90;99.90;;;;;;4954580;29;20553;-78
2023/12/16 12:39:57;;;;;;;13.90;8.20;;;6.80;99.90;;;;;;4954681;29;20297;-77